createdAt,value
2019-05-18T00:00:52.907Z,12.05
2019-05-18T00:03:25.772Z,12.04
2019-05-18T00:05:58.677Z,12.04
2019-05-18T00:08:31.476Z,12.04
2019-05-18T00:11:04.504Z,12.01
2019-05-18T00:13:37.315Z,12.02
2019-05-18T00:16:10.122Z,12.02
2019-05-18T00:18:42.940Z,12.01
2019-05-18T00:21:15.887Z,12.03
2019-05-18T00:23:48.755Z,12.03
2019-05-18T00:26:21.701Z,12.03
2019-05-18T00:28:54.845Z,12.06
2019-05-18T00:31:27.730Z,12.07
2019-05-18T00:34:00.592Z,12.06
2019-05-18T00:36:33.511Z,12.07
2019-05-18T00:39:07.692Z,12.12
2019-05-18T00:41:40.527Z,12.12
2019-05-18T00:44:13.332Z,12.12
2019-05-18T00:46:46.267Z,12.09
2019-05-18T00:49:19.159Z,12.06
2019-05-18T00:51:52.071Z,12.03
2019-05-18T00:54:24.925Z,12.03
2019-05-18T00:56:57.775Z,12.00
2019-05-18T00:59:30.653Z,11.99
2019-05-18T01:02:03.458Z,11.96
2019-05-18T01:04:36.390Z,11.97
2019-05-18T01:07:09.253Z,11.97
2019-05-18T01:09:42.250Z,12.00
2019-05-18T01:12:15.226Z,12.02
2019-05-18T01:14:49.223Z,12.04
2019-05-18T01:17:23.531Z,12.04
2019-05-18T01:19:56.732Z,12.04
2019-05-18T01:22:31.182Z,12.07
2019-05-18T01:25:04.330Z,12.06
2019-05-18T01:27:38.346Z,12.06
2019-05-18T01:30:11.695Z,12.06
2019-05-18T01:32:44.612Z,12.07
2019-05-18T01:35:17.929Z,12.09
2019-05-18T01:37:50.755Z,12.04
2019-05-18T01:40:23.650Z,12.07
2019-05-18T01:42:56.538Z,12.05
2019-05-18T01:45:30.336Z,12.08
2019-05-18T01:48:13.357Z,12.05
2019-05-18T01:50:37.663Z,12.04
2019-05-18T01:53:11.509Z,12.03
2019-05-18T01:55:44.380Z,12.04
2019-05-18T01:58:17.462Z,12.03
2019-05-18T02:00:51.331Z,12.03
2019-05-18T02:03:25.963Z,12.01
2019-05-18T02:05:58.722Z,11.95
2019-05-18T02:08:31.550Z,11.95
2019-05-18T02:11:04.418Z,11.95
2019-05-18T02:13:37.382Z,11.95
2019-05-18T02:16:10.161Z,11.96
2019-05-18T02:18:42.954Z,11.97
2019-05-18T02:21:15.789Z,11.99
2019-05-18T02:23:48.769Z,11.98
2019-05-18T02:26:21.609Z,11.99
2019-05-18T02:28:54.516Z,12.00
2019-05-18T02:31:27.332Z,12.02
2019-05-18T02:34:00.133Z,12.01
2019-05-18T02:36:33.086Z,12.03
2019-05-18T02:39:07.725Z,12.05
2019-05-18T02:41:40.505Z,12.04
2019-05-18T02:44:13.320Z,12.00
2019-05-18T02:46:46.137Z,11.97
2019-05-18T02:49:19.036Z,11.95
2019-05-18T02:51:51.835Z,11.91
2019-05-18T02:54:24.657Z,11.86
2019-05-18T02:56:57.536Z,11.82
2019-05-18T02:59:30.341Z,11.80
2019-05-18T03:02:03.125Z,11.80
2019-05-18T03:04:36.663Z,11.79
2019-05-18T03:07:09.465Z,11.78
2019-05-18T03:09:42.391Z,11.74
2019-05-18T03:12:15.221Z,11.71
2019-05-18T03:14:48.182Z,11.67
2019-05-18T03:17:21.001Z,11.62
2019-05-18T03:19:54.095Z,11.61
2019-05-18T03:22:26.995Z,11.57
2019-05-18T03:24:59.882Z,11.59
2019-05-18T03:27:32.831Z,11.63
2019-05-18T03:30:05.833Z,11.65
2019-05-18T03:32:38.740Z,11.70
2019-05-18T03:35:12.255Z,11.72
2019-05-18T03:37:45.076Z,11.77
2019-05-18T03:40:18.111Z,11.80
2019-05-18T03:42:50.929Z,11.81
2019-05-18T03:45:23.734Z,11.83
2019-05-18T03:47:56.659Z,11.82
2019-05-18T03:50:29.569Z,11.82
2019-05-18T03:53:02.456Z,11.83
2019-05-18T03:55:36.454Z,11.87
2019-05-18T03:58:09.252Z,11.92
2019-05-18T04:00:42.301Z,12.00
2019-05-18T04:03:15.197Z,12.01
2019-05-18T04:05:48.080Z,12.05
2019-05-18T04:08:21.014Z,12.16
2019-05-18T04:10:54.734Z,12.23
2019-05-18T04:13:27.724Z,12.30
2019-05-18T04:16:00.719Z,12.33
2019-05-18T04:18:33.717Z,12.34
2019-05-18T04:21:09.980Z,12.40
2019-05-18T04:23:42.951Z,12.42
2019-05-18T04:26:15.922Z,12.54
2019-05-18T04:28:48.969Z,12.60
2019-05-18T04:31:21.978Z,12.68
2019-05-18T04:33:54.787Z,12.77
2019-05-18T04:36:27.779Z,12.89
2019-05-18T04:39:00.705Z,12.98
2019-05-18T04:41:33.765Z,13.09
2019-05-18T04:44:10.312Z,13.23
2019-05-18T04:46:43.297Z,13.34
2019-05-18T04:49:25.960Z,13.38
2019-05-18T04:51:59.974Z,13.46
2019-05-18T04:54:35.611Z,13.57
2019-05-18T04:57:08.987Z,13.71
2019-05-18T04:59:42.857Z,13.85
2019-05-18T05:02:15.709Z,13.95
2019-05-18T05:04:52.652Z,13.99
2019-05-18T05:07:24.799Z,14.09
2019-05-18T05:09:58.319Z,14.17
2019-05-18T05:12:31.241Z,14.28
2019-05-18T05:15:06.977Z,14.39
2019-05-18T05:17:40.018Z,14.61
2019-05-18T05:20:19.698Z,14.79
2019-05-18T05:22:52.269Z,14.84
2019-05-18T05:25:25.321Z,14.98
2019-05-18T05:27:59.268Z,15.19
2019-05-18T05:30:32.562Z,15.33
2019-05-18T05:33:05.384Z,15.42
2019-05-18T05:35:38.293Z,15.43
2019-05-18T05:38:12.171Z,15.63
2019-05-18T05:40:45.609Z,15.69
2019-05-18T05:43:19.212Z,15.92
2019-05-18T05:45:52.537Z,16.11
2019-05-18T05:48:25.513Z,16.05
2019-05-18T05:50:58.581Z,16.23
2019-05-18T05:53:31.383Z,16.41
2019-05-18T05:56:04.956Z,16.59
2019-05-18T05:58:37.853Z,16.98
2019-05-18T06:01:10.861Z,17.22
2019-05-18T06:03:43.764Z,17.43
2019-05-18T06:06:16.727Z,17.59
2019-05-18T06:08:49.771Z,17.86
2019-05-18T06:11:22.694Z,18.27
2019-05-18T06:13:55.669Z,18.55
2019-05-18T06:16:28.628Z,18.63
2019-05-18T06:19:01.666Z,18.77
2019-05-18T06:21:34.978Z,19.01
2019-05-18T06:24:07.944Z,19.05
2019-05-18T06:26:40.836Z,19.05
2019-05-18T06:29:13.827Z,18.98
2019-05-18T06:31:46.796Z,19.02
2019-05-18T06:34:19.957Z,19.11
2019-05-18T06:36:55.843Z,18.73
2019-05-18T06:39:27.354Z,18.86
2019-05-18T06:42:00.213Z,19.03
2019-05-18T06:44:33.100Z,19.14
2019-05-18T06:47:07.103Z,19.27
2019-05-18T06:49:39.999Z,19.49
2019-05-18T06:52:12.924Z,19.85
2019-05-18T06:54:45.980Z,20.04
2019-05-18T06:57:19.503Z,20.20
2019-05-18T06:59:53.239Z,20.18
2019-05-18T07:02:26.150Z,20.56
2019-05-18T07:04:58.990Z,20.85
2019-05-18T07:07:32.172Z,21.17
2019-05-18T07:10:05.193Z,21.33
2019-05-18T07:12:38.343Z,21.40
2019-05-18T07:15:12.102Z,21.25
2019-05-18T07:17:45.129Z,21.39
2019-05-18T07:20:18.770Z,21.88
2019-05-18T07:22:52.500Z,22.05
2019-05-18T07:25:26.616Z,22.02
2019-05-18T07:27:59.513Z,21.75
2019-05-18T07:30:32.354Z,21.98
2019-05-18T07:33:05.269Z,21.68
2019-05-18T07:35:38.153Z,21.07
2019-05-18T07:38:11.034Z,21.21
2019-05-18T07:40:44.121Z,21.57
2019-05-18T07:43:17.069Z,21.56
2019-05-18T07:45:49.880Z,21.59
2019-05-18T07:48:22.727Z,21.39
2019-05-18T07:50:55.604Z,21.78
2019-05-18T07:53:28.439Z,22.18
2019-05-18T07:56:01.339Z,22.40
2019-05-18T07:58:36.201Z,22.77
2019-05-18T08:01:09.002Z,23.16
2019-05-18T08:03:41.842Z,23.41
2019-05-18T08:06:14.650Z,23.43
2019-05-18T08:08:47.492Z,23.33
2019-05-18T08:11:20.457Z,23.81
2019-05-18T08:13:53.371Z,23.63
2019-05-18T08:16:26.249Z,22.87
2019-05-18T08:18:59.202Z,22.44
2019-05-18T08:21:32.023Z,23.34
2019-05-18T08:24:04.884Z,23.09
2019-05-18T08:26:37.849Z,23.61
2019-05-18T08:29:11.832Z,23.47
2019-05-18T08:31:44.722Z,23.96
2019-05-18T08:34:17.522Z,24.76
2019-05-18T08:36:50.413Z,25.15
2019-05-18T08:39:23.284Z,24.62
2019-05-18T08:41:56.350Z,23.85
2019-05-18T08:44:29.320Z,23.56
2019-05-18T08:47:02.514Z,23.18
2019-05-18T08:49:35.577Z,23.43
2019-05-18T08:52:08.899Z,23.76
2019-05-18T08:54:41.906Z,24.21
2019-05-18T08:57:14.894Z,24.57
2019-05-18T08:59:47.816Z,25.07
2019-05-18T09:02:20.750Z,25.01
2019-05-18T09:04:53.621Z,24.58
2019-05-18T09:07:26.588Z,23.46
2019-05-18T09:09:59.439Z,23.41
2019-05-18T09:12:32.463Z,22.94
2019-05-18T09:15:06.990Z,22.96
2019-05-18T09:17:40.266Z,22.57
2019-05-18T09:20:14.451Z,22.91
2019-05-18T09:22:47.415Z,23.63
2019-05-18T09:25:21.456Z,24.17
2019-05-18T09:27:54.478Z,24.41
2019-05-18T09:30:27.466Z,24.48
2019-05-18T09:33:00.449Z,24.35
2019-05-18T09:35:33.322Z,24.96
2019-05-18T09:38:06.206Z,25.17
2019-05-18T09:40:39.061Z,25.05
2019-05-18T09:43:11.862Z,24.98
2019-05-18T09:45:44.714Z,25.34
2019-05-18T09:48:17.969Z,25.61
2019-05-18T09:50:57.263Z,25.54
2019-05-18T09:53:31.289Z,24.83
2019-05-18T09:56:04.244Z,24.75
2019-05-18T09:58:37.107Z,24.60
2019-05-18T10:01:09.916Z,24.34
2019-05-18T10:03:42.776Z,24.23
2019-05-18T10:06:16.077Z,23.63
2019-05-18T10:08:49.081Z,23.74
2019-05-18T10:11:23.094Z,24.19
2019-05-18T10:13:56.035Z,24.90
2019-05-18T10:16:28.829Z,25.15
2019-05-18T10:19:01.768Z,25.57
2019-05-18T10:21:34.682Z,25.42
2019-05-18T10:24:07.521Z,25.26
2019-05-18T10:26:40.352Z,25.21
2019-05-18T10:29:13.175Z,25.84
2019-05-18T10:31:46.084Z,25.70
2019-05-18T10:34:18.991Z,25.73
2019-05-18T10:36:51.946Z,26.09
2019-05-18T10:39:24.845Z,25.99
2019-05-18T10:41:57.756Z,25.98
2019-05-18T10:44:30.651Z,25.63
2019-05-18T10:47:03.470Z,24.89
2019-05-18T10:49:36.255Z,24.25
2019-05-18T10:52:09.560Z,24.66
2019-05-18T10:54:42.459Z,25.06
2019-05-18T10:57:15.442Z,25.03
2019-05-18T10:59:48.386Z,24.34
2019-05-18T11:02:21.434Z,24.15
2019-05-18T11:04:54.366Z,24.28
2019-05-18T11:07:29.044Z,24.85
2019-05-18T11:10:02.362Z,25.16
2019-05-18T11:12:35.397Z,25.46
2019-05-18T11:15:09.745Z,25.47
2019-05-18T11:17:42.699Z,25.84
2019-05-18T11:20:17.837Z,25.75
2019-05-18T11:22:50.761Z,25.65
2019-05-18T11:25:23.825Z,25.00
2019-05-18T11:27:56.688Z,25.63
2019-05-18T11:30:29.632Z,26.06
2019-05-18T11:33:02.564Z,26.45
2019-05-18T11:35:35.542Z,25.76
2019-05-18T11:38:08.386Z,25.92
2019-05-18T11:40:41.225Z,25.50
2019-05-18T11:43:14.302Z,25.32
2019-05-18T11:45:47.447Z,25.11
2019-05-18T11:48:20.233Z,25.01
2019-05-18T11:50:53.218Z,24.79
2019-05-18T11:53:26.159Z,25.26
2019-05-18T11:55:58.966Z,25.59
2019-05-18T11:58:31.824Z,25.96
2019-05-18T12:01:04.686Z,26.01
2019-05-18T12:03:37.596Z,26.17
2019-05-18T12:06:10.739Z,25.34
2019-05-18T12:08:43.510Z,24.95
2019-05-18T12:11:16.340Z,25.61
2019-05-18T12:13:49.277Z,25.60
2019-05-18T12:16:22.137Z,25.84
2019-05-18T12:18:57.523Z,26.10
2019-05-18T12:21:30.288Z,24.90
2019-05-18T12:24:14.813Z,25.81
2019-05-18T12:26:37.790Z,25.69
2019-05-18T12:29:10.576Z,25.76
2019-05-18T12:31:43.445Z,25.93
2019-05-18T12:34:16.306Z,26.09
2019-05-18T12:36:49.199Z,25.92
2019-05-18T12:39:22.086Z,26.14
2019-05-18T12:41:54.967Z,26.10
2019-05-18T12:44:27.826Z,26.29
2019-05-18T12:47:00.667Z,26.11
2019-05-18T12:49:33.619Z,26.20
2019-05-18T12:52:06.609Z,26.21
2019-05-18T12:54:46.491Z,26.03
2019-05-18T12:57:14.376Z,26.02
2019-05-18T12:59:47.241Z,26.20
2019-05-18T13:02:20.184Z,25.56
2019-05-18T13:04:54.067Z,25.45
2019-05-18T13:07:26.997Z,25.49
2019-05-18T13:09:59.890Z,25.71
2019-05-18T13:12:32.761Z,25.15
2019-05-18T13:15:06.856Z,25.24
2019-05-18T13:17:39.759Z,24.95
2019-05-18T13:20:13.269Z,25.01
2019-05-18T13:22:48.275Z,24.95
2019-05-18T13:25:21.791Z,24.81
2019-05-18T13:27:54.764Z,24.85
2019-05-18T13:30:27.819Z,24.39
2019-05-18T13:33:00.783Z,24.46
2019-05-18T13:35:33.959Z,24.48
2019-05-18T13:38:06.900Z,24.62
2019-05-18T13:40:42.847Z,24.47
2019-05-18T13:43:15.930Z,24.22
2019-05-18T13:45:48.910Z,24.10
2019-05-18T13:48:21.805Z,24.05
2019-05-18T13:50:54.608Z,24.05
2019-05-18T13:53:27.592Z,24.07
2019-05-18T13:56:00.591Z,24.08
2019-05-18T13:58:33.511Z,23.95
2019-05-18T14:01:06.791Z,23.92
2019-05-18T14:03:40.078Z,24.01
2019-05-18T14:06:13.429Z,23.94
2019-05-18T14:08:47.048Z,23.95
2019-05-18T14:11:21.734Z,23.72
2019-05-18T14:13:54.722Z,23.75
2019-05-18T14:16:29.657Z,23.77
2019-05-18T14:19:02.605Z,23.71
2019-05-18T14:21:35.525Z,23.86
2019-05-18T14:24:08.414Z,23.84
2019-05-18T14:26:41.254Z,23.77
2019-05-18T14:29:14.265Z,23.72
2019-05-18T14:31:47.260Z,23.79
2019-05-18T14:34:20.058Z,23.84
2019-05-18T14:36:52.927Z,23.89
2019-05-18T14:39:26.240Z,23.88
2019-05-18T14:41:59.116Z,23.99
2019-05-18T14:44:32.110Z,23.96
2019-05-18T14:47:05.297Z,23.95
2019-05-18T14:49:38.215Z,24.03
2019-05-18T14:52:12.180Z,23.96
2019-05-18T14:54:45.529Z,23.94
2019-05-18T14:57:18.502Z,23.90
2019-05-18T14:59:51.490Z,24.05
2019-05-18T15:02:24.420Z,24.13
2019-05-18T15:04:57.259Z,24.03
2019-05-18T15:07:30.216Z,24.01
2019-05-18T15:10:03.049Z,23.97
2019-05-18T15:12:36.277Z,23.99
2019-05-18T15:15:10.303Z,23.98
2019-05-18T15:17:44.079Z,24.01
2019-05-18T15:20:18.372Z,23.92
2019-05-18T15:22:51.325Z,23.86
2019-05-18T15:25:24.291Z,23.83
2019-05-18T15:27:57.287Z,23.74
2019-05-18T15:30:30.124Z,23.64
2019-05-18T15:33:02.987Z,23.61
2019-05-18T15:35:36.183Z,23.54
2019-05-18T15:38:09.105Z,23.62
2019-05-18T15:40:41.967Z,23.58
2019-05-18T15:43:14.917Z,23.60
2019-05-18T15:45:47.781Z,23.65
2019-05-18T15:48:20.753Z,23.76
2019-05-18T15:50:53.675Z,23.80
2019-05-18T15:53:26.474Z,23.86
2019-05-18T15:56:05.806Z,23.78
2019-05-18T15:58:34.119Z,23.73
2019-05-18T16:01:07.015Z,23.65
2019-05-18T16:03:40.277Z,23.66
2019-05-18T16:06:13.164Z,23.69
2019-05-18T16:08:46.054Z,23.70
2019-05-18T16:11:18.934Z,23.64
2019-05-18T16:13:51.833Z,23.58
2019-05-18T16:16:24.694Z,23.50
2019-05-18T16:18:57.693Z,23.52
2019-05-18T16:21:30.584Z,23.49
2019-05-18T16:24:03.520Z,23.50
2019-05-18T16:26:36.510Z,23.48
2019-05-18T16:29:09.361Z,23.48
2019-05-18T16:31:42.163Z,23.45
2019-05-18T16:34:16.101Z,23.46
2019-05-18T16:36:48.993Z,23.39
2019-05-18T16:39:21.820Z,23.40
2019-05-18T16:41:54.702Z,23.33
2019-05-18T16:44:27.532Z,23.34
2019-05-18T16:47:00.390Z,23.33
2019-05-18T16:49:33.250Z,23.33
2019-05-18T16:52:06.140Z,23.30
2019-05-18T16:54:39.257Z,23.27
2019-05-18T16:57:12.078Z,23.26
2019-05-18T16:59:45.006Z,23.23
2019-05-18T17:02:30.653Z,23.25
2019-05-18T17:04:52.520Z,23.21
2019-05-18T17:07:25.490Z,23.21
2019-05-18T17:09:58.407Z,23.16
2019-05-18T17:12:31.205Z,23.09
2019-05-18T17:15:04.147Z,23.08
2019-05-18T17:17:37.007Z,23.04
2019-05-18T17:20:11.737Z,23.01
2019-05-18T17:22:44.585Z,22.97
2019-05-18T17:25:17.983Z,22.93
2019-05-18T17:27:50.794Z,22.91
2019-05-18T17:30:23.689Z,22.88
2019-05-18T17:32:57.186Z,22.84
2019-05-18T17:35:30.025Z,22.80
2019-05-18T17:38:02.810Z,22.78
2019-05-18T17:40:35.641Z,22.73
2019-05-18T17:43:08.636Z,22.67
2019-05-18T17:45:41.588Z,22.61
2019-05-18T17:48:14.699Z,22.56
2019-05-18T17:50:47.840Z,22.50
2019-05-18T17:53:20.876Z,22.42
2019-05-18T17:55:53.776Z,22.37
2019-05-18T17:58:26.760Z,22.34
2019-05-18T18:00:59.608Z,22.28
2019-05-18T18:03:32.877Z,22.22
2019-05-18T18:06:05.969Z,22.15
2019-05-18T18:08:38.902Z,22.09
2019-05-18T18:11:12.091Z,22.07
2019-05-18T18:13:45.123Z,21.96
2019-05-18T18:16:20.781Z,21.82
2019-05-18T18:18:53.662Z,21.75
2019-05-18T18:21:26.768Z,21.66
2019-05-18T18:23:59.648Z,21.57
2019-05-18T18:26:32.794Z,21.49
2019-05-18T18:29:05.856Z,21.39
2019-05-18T18:31:38.777Z,21.33
2019-05-18T18:34:12.065Z,21.29
2019-05-18T18:36:45.423Z,21.23
2019-05-18T18:39:18.393Z,21.17
2019-05-18T18:41:51.314Z,21.08
2019-05-18T18:44:24.304Z,20.99
2019-05-18T18:46:57.173Z,20.88
2019-05-18T18:49:30.027Z,20.77
2019-05-18T18:52:02.949Z,20.56
2019-05-18T18:54:35.813Z,20.38
2019-05-18T18:57:08.723Z,20.25
2019-05-18T18:59:41.650Z,20.14
2019-05-18T19:02:14.530Z,20.02
2019-05-18T19:04:47.401Z,19.94
2019-05-18T19:07:20.387Z,19.84
2019-05-18T19:09:53.385Z,19.71
2019-05-18T19:12:26.288Z,19.63
2019-05-18T19:14:59.231Z,19.54
2019-05-18T19:17:32.282Z,19.43
2019-05-18T19:20:05.817Z,19.29
2019-05-18T19:22:38.854Z,19.21
2019-05-18T19:25:12.161Z,19.13
2019-05-18T19:27:54.579Z,19.07
2019-05-18T19:30:20.528Z,18.98
2019-05-18T19:32:53.323Z,18.86
2019-05-18T19:35:26.288Z,18.77
2019-05-18T19:37:59.221Z,18.72
2019-05-18T19:40:32.175Z,18.62
2019-05-18T19:43:06.169Z,18.55
2019-05-18T19:45:39.159Z,18.43
2019-05-18T19:48:12.078Z,18.32
2019-05-18T19:50:45.040Z,18.15
2019-05-18T19:53:18.055Z,18.02
2019-05-18T19:55:51.796Z,17.87
2019-05-18T19:58:24.849Z,17.76
2019-05-18T20:00:58.752Z,17.68
2019-05-18T20:03:33.025Z,17.59
2019-05-18T20:06:07.120Z,17.53
2019-05-18T20:08:39.963Z,17.49
2019-05-18T20:11:12.997Z,17.48
2019-05-18T20:13:45.998Z,17.46
2019-05-18T20:16:18.866Z,17.40
2019-05-18T20:18:51.770Z,17.33
2019-05-18T20:21:24.983Z,17.30
2019-05-18T20:23:58.219Z,17.24
2019-05-18T20:26:31.663Z,17.17
2019-05-18T20:29:05.601Z,17.08
2019-05-18T20:31:38.970Z,16.98
2019-05-18T20:34:11.854Z,16.92
2019-05-18T20:36:44.830Z,16.88
2019-05-18T20:39:17.947Z,16.73
2019-05-18T20:41:50.921Z,16.69
2019-05-18T20:44:23.984Z,16.68
2019-05-18T20:46:57.073Z,16.64
2019-05-18T20:49:29.966Z,16.63
2019-05-18T20:52:02.963Z,16.63
2019-05-18T20:54:35.998Z,16.65
2019-05-18T20:57:08.959Z,16.64
2019-05-18T20:59:41.869Z,16.61
2019-05-18T21:02:14.729Z,16.57
2019-05-18T21:04:47.775Z,16.54
2019-05-18T21:07:21.381Z,16.48
2019-05-18T21:09:54.242Z,16.45
2019-05-18T21:12:27.093Z,16.43
2019-05-18T21:15:00.072Z,16.40
2019-05-18T21:17:33.330Z,16.34
2019-05-18T21:20:06.981Z,16.29
2019-05-18T21:22:39.965Z,16.21
2019-05-18T21:25:13.370Z,16.15
2019-05-18T21:27:46.328Z,16.14
2019-05-18T21:30:20.304Z,16.13
2019-05-18T21:32:53.388Z,16.09
2019-05-18T21:35:26.453Z,16.10
2019-05-18T21:38:00.818Z,15.98
2019-05-18T21:40:33.754Z,15.86
2019-05-18T21:43:06.617Z,15.84
2019-05-18T21:45:39.610Z,15.74
2019-05-18T21:48:12.579Z,15.71
2019-05-18T21:50:45.520Z,15.71
2019-05-18T21:53:18.599Z,15.57
2019-05-18T21:55:51.653Z,15.38
2019-05-18T21:58:24.523Z,15.36
2019-05-18T22:00:57.451Z,15.36
2019-05-18T22:03:30.469Z,15.39
2019-05-18T22:06:03.609Z,15.40
2019-05-18T22:08:36.593Z,15.43
2019-05-18T22:11:09.487Z,15.38
2019-05-18T22:13:42.475Z,15.37
2019-05-18T22:16:15.391Z,15.36
2019-05-18T22:18:48.447Z,15.23
2019-05-18T22:21:21.343Z,15.16
2019-05-18T22:23:54.292Z,15.08
2019-05-18T22:26:27.175Z,15.03
2019-05-18T22:29:00.080Z,15.02
2019-05-18T22:31:33.233Z,15.01
2019-05-18T22:34:09.074Z,14.97
2019-05-18T22:36:41.987Z,14.92
2019-05-18T22:39:14.915Z,14.91
2019-05-18T22:41:47.918Z,14.88
2019-05-18T22:44:20.999Z,14.85
2019-05-18T22:46:54.031Z,14.87
2019-05-18T22:49:27.278Z,14.80
2019-05-18T22:52:00.107Z,14.78
2019-05-18T22:54:33.168Z,14.78
2019-05-18T22:57:06.382Z,14.80
2019-05-18T22:59:39.247Z,14.79
2019-05-18T23:02:12.619Z,14.78
2019-05-18T23:04:45.565Z,14.81
2019-05-18T23:07:18.498Z,14.79
2019-05-18T23:09:51.725Z,14.78
2019-05-18T23:12:24.818Z,14.75
2019-05-18T23:14:57.865Z,14.69
2019-05-18T23:17:30.791Z,14.60
2019-05-18T23:20:03.861Z,14.56
2019-05-18T23:22:36.976Z,14.56
2019-05-18T23:25:10.335Z,14.59
2019-05-18T23:27:43.326Z,14.59
2019-05-18T23:30:16.448Z,14.57
2019-05-18T23:32:50.665Z,14.57
2019-05-18T23:35:23.799Z,14.55
2019-05-18T23:37:56.910Z,14.54
2019-05-18T23:40:29.764Z,14.49
2019-05-18T23:43:02.680Z,14.48
2019-05-18T23:45:35.895Z,14.42
2019-05-18T23:48:08.884Z,14.44
2019-05-18T23:50:41.797Z,14.45
2019-05-18T23:53:14.596Z,14.41
2019-05-18T23:55:47.505Z,14.36
2019-05-18T23:58:20.370Z,14.29
